sensor_id;sensor_type;location;lat;lon;timestamp;temperature;humidity
31113;DHT22;17763;48.730;9.136;2024-03-29T00:01:23;6.60;93.50
31113;DHT22;17763;48.730;9.136;2024-03-29T00:03:49;6.70;93.60
31113;DHT22;17763;48.730;9.136;2024-03-29T00:06:15;6.60;93.60
31113;DHT22;17763;48.730;9.136;2024-03-29T00:08:41;6.70;93.60
31113;DHT22;17763;48.730;9.136;2024-03-29T00:11:06;6.70;93.70
31113;DHT22;17763;48.730;9.136;2024-03-29T00:13:35;6.70;93.70
31113;DHT22;17763;48.730;9.136;2024-03-29T00:16:00;6.70;93.70
31113;DHT22;17763;48.730;9.136;2024-03-29T00:18:26;6.70;93.70
31113;DHT22;17763;48.730;9.136;2024-03-29T00:20:54;6.70;93.80
31113;DHT22;17763;48.730;9.136;2024-03-29T00:23:22;6.70;93.90
31113;DHT22;17763;48.730;9.136;2024-03-29T00:25:48;6.70;93.90
31113;DHT22;17763;48.730;9.136;2024-03-29T00:28:14;6.80;93.80
31113;DHT22;17763;48.730;9.136;2024-03-29T00:30:40;6.70;93.80
31113;DHT22;17763;48.730;9.136;2024-03-29T00:33:05;6.70;93.80
31113;DHT22;17763;48.730;9.136;2024-03-29T00:35:31;6.70;93.80
31113;DHT22;17763;48.730;9.136;2024-03-29T00:37:57;6.70;93.90
31113;DHT22;17763;48.730;9.136;2024-03-29T00:40:25;6.70;93.90
31113;DHT22;17763;48.730;9.136;2024-03-29T00:42:50;6.70;93.90
31113;DHT22;17763;48.730;9.136;2024-03-29T00:45:16;6.70;93.90
31113;DHT22;17763;48.730;9.136;2024-03-29T00:47:42;6.70;93.80
31113;DHT22;17763;48.730;9.136;2024-03-29T00:50:11;6.80;93.90
31113;DHT22;17763;48.730;9.136;2024-03-29T00:52:36;6.80;93.80
31113;DHT22;17763;48.730;9.136;2024-03-29T00:55:05;6.80;93.80
31113;DHT22;17763;48.730;9.136;2024-03-29T00:57:31;6.90;93.80
31113;DHT22;17763;48.730;9.136;2024-03-29T00:59:57;6.90;93.80
31113;DHT22;17763;48.730;9.136;2024-03-29T01:02:23;6.90;93.80
31113;DHT22;17763;48.730;9.136;2024-03-29T01:04:51;6.90;93.80
31113;DHT22;17763;48.730;9.136;2024-03-29T01:07:17;6.90;93.80
31113;DHT22;17763;48.730;9.136;2024-03-29T01:09:43;7.00;93.90
31113;DHT22;17763;48.730;9.136;2024-03-29T01:12:10;6.90;94.00
31113;DHT22;17763;48.730;9.136;2024-03-29T01:14:35;7.00;94.00
31113;DHT22;17763;48.730;9.136;2024-03-29T01:17:02;7.00;94.00
31113;DHT22;17763;48.730;9.136;2024-03-29T01:19:28;7.00;94.10
31113;DHT22;17763;48.730;9.136;2024-03-29T01:21:56;6.90;94.00
31113;DHT22;17763;48.730;9.136;2024-03-29T01:24:22;6.90;94.10
31113;DHT22;17763;48.730;9.136;2024-03-29T01:26:47;7.00;94.30
31113;DHT22;17763;48.730;9.136;2024-03-29T01:29:13;7.00;94.40
31113;DHT22;17763;48.730;9.136;2024-03-29T01:31:41;7.00;94.40
31113;DHT22;17763;48.730;9.136;2024-03-29T01:34:10;7.00;94.30
31113;DHT22;17763;48.730;9.136;2024-03-29T01:36:35;7.00;94.30
31113;DHT22;17763;48.730;9.136;2024-03-29T01:39:01;7.00;94.40
31113;DHT22;17763;48.730;9.136;2024-03-29T01:41:27;7.00;94.40
31113;DHT22;17763;48.730;9.136;2024-03-29T01:43:54;7.00;94.40
31113;DHT22;17763;48.730;9.136;2024-03-29T01:46:23;7.00;94.40
31113;DHT22;17763;48.730;9.136;2024-03-29T01:48:53;7.10;94.30
31113;DHT22;17763;48.730;9.136;2024-03-29T01:51:25;7.10;94.40
31113;DHT22;17763;48.730;9.136;2024-03-29T01:53:53;7.00;94.30
31113;DHT22;17763;48.730;9.136;2024-03-29T01:56:20;7.10;94.40
31113;DHT22;17763;48.730;9.136;2024-03-29T01:58:46;7.10;94.30
31113;DHT22;17763;48.730;9.136;2024-03-29T02:01:13;7.10;94.30
31113;DHT22;17763;48.730;9.136;2024-03-29T02:03:42;7.00;94.30
31113;DHT22;17763;48.730;9.136;2024-03-29T02:06:08;7.10;94.40
31113;DHT22;17763;48.730;9.136;2024-03-29T02:08:36;7.10;94.30
31113;DHT22;17763;48.730;9.136;2024-03-29T02:11:02;7.10;94.30
31113;DHT22;17763;48.730;9.136;2024-03-29T02:13:28;7.10;94.30
31113;DHT22;17763;48.730;9.136;2024-03-29T02:15:54;7.10;94.10
31113;DHT22;17763;48.730;9.136;2024-03-29T02:18:19;7.10;94.10
31113;DHT22;17763;48.730;9.136;2024-03-29T02:20:45;7.10;94.00
31113;DHT22;17763;48.730;9.136;2024-03-29T02:23:18;7.10;93.90
31113;DHT22;17763;48.730;9.136;2024-03-29T02:25:45;7.20;93.90
31113;DHT22;17763;48.730;9.136;2024-03-29T02:28:13;7.20;93.90
31113;DHT22;17763;48.730;9.136;2024-03-29T02:30:38;7.20;93.80
31113;DHT22;17763;48.730;9.136;2024-03-29T02:33:04;7.20;93.70
31113;DHT22;17763;48.730;9.136;2024-03-29T02:35:30;7.30;93.70
31113;DHT22;17763;48.730;9.136;2024-03-29T02:37:58;7.30;93.70
31113;DHT22;17763;48.730;9.136;2024-03-29T02:40:24;7.30;93.70
31113;DHT22;17763;48.730;9.136;2024-03-29T02:42:50;7.30;93.50
31113;DHT22;17763;48.730;9.136;2024-03-29T02:45:18;7.30;93.50
31113;DHT22;17763;48.730;9.136;2024-03-29T02:47:43;7.40;93.60
31113;DHT22;17763;48.730;9.136;2024-03-29T02:50:12;7.40;93.70
31113;DHT22;17763;48.730;9.136;2024-03-29T02:52:38;7.40;93.70
31113;DHT22;17763;48.730;9.136;2024-03-29T02:55:04;7.40;93.80
31113;DHT22;17763;48.730;9.136;2024-03-29T02:57:32;7.40;93.70
31113;DHT22;17763;48.730;9.136;2024-03-29T02:59:58;7.40;94.00
31113;DHT22;17763;48.730;9.136;2024-03-29T03:02:26;7.40;94.10
31113;DHT22;17763;48.730;9.136;2024-03-29T03:04:51;7.40;93.90
31113;DHT22;17763;48.730;9.136;2024-03-29T03:07:19;7.40;93.80
31113;DHT22;17763;48.730;9.136;2024-03-29T03:10:03;7.40;93.70
31113;DHT22;17763;48.730;9.136;2024-03-29T03:12:48;7.40;93.70
31113;DHT22;17763;48.730;9.136;2024-03-29T03:15:14;7.40;93.70
31113;DHT22;17763;48.730;9.136;2024-03-29T03:17:39;7.40;93.80
31113;DHT22;17763;48.730;9.136;2024-03-29T03:20:05;7.50;93.80
31113;DHT22;17763;48.730;9.136;2024-03-29T03:22:32;7.50;93.70
31113;DHT22;17763;48.730;9.136;2024-03-29T03:24:58;7.50;93.70
31113;DHT22;17763;48.730;9.136;2024-03-29T03:27:25;7.50;93.60
31113;DHT22;17763;48.730;9.136;2024-03-29T03:29:51;7.60;93.60
31113;DHT22;17763;48.730;9.136;2024-03-29T03:32:19;7.60;93.60
31113;DHT22;17763;48.730;9.136;2024-03-29T03:34:47;7.70;93.60
31113;DHT22;17763;48.730;9.136;2024-03-29T03:37:13;7.70;93.50
31113;DHT22;17763;48.730;9.136;2024-03-29T03:39:38;7.70;93.30
31113;DHT22;17763;48.730;9.136;2024-03-29T03:42:04;7.80;93.30
31113;DHT22;17763;48.730;9.136;2024-03-29T03:44:32;7.80;93.00
31113;DHT22;17763;48.730;9.136;2024-03-29T03:46:58;7.80;92.80
31113;DHT22;17763;48.730;9.136;2024-03-29T03:49:31;7.80;93.00
31113;DHT22;17763;48.730;9.136;2024-03-29T03:52:01;7.80;93.00
31113;DHT22;17763;48.730;9.136;2024-03-29T03:54:28;7.90;92.40
31113;DHT22;17763;48.730;9.136;2024-03-29T03:56:58;7.80;92.10
31113;DHT22;17763;48.730;9.136;2024-03-29T03:59:23;7.80;91.90
31113;DHT22;17763;48.730;9.136;2024-03-29T04:01:51;7.90;91.90
31113;DHT22;17763;48.730;9.136;2024-03-29T04:04:19;7.90;91.70
31113;DHT22;17763;48.730;9.136;2024-03-29T04:06:45;8.00;91.60
31113;DHT22;17763;48.730;9.136;2024-03-29T04:09:13;8.00;91.60
31113;DHT22;17763;48.730;9.136;2024-03-29T04:11:41;8.00;91.50
31113;DHT22;17763;48.730;9.136;2024-03-29T04:14:07;8.00;91.60
31113;DHT22;17763;48.730;9.136;2024-03-29T04:16:35;8.10;91.50
31113;DHT22;17763;48.730;9.136;2024-03-29T04:19:01;8.10;91.40
31113;DHT22;17763;48.730;9.136;2024-03-29T04:21:26;8.20;91.40
31113;DHT22;17763;48.730;9.136;2024-03-29T04:23:52;8.20;91.10
31113;DHT22;17763;48.730;9.136;2024-03-29T04:26:18;8.30;90.60
31113;DHT22;17763;48.730;9.136;2024-03-29T04:28:47;8.30;90.30
31113;DHT22;17763;48.730;9.136;2024-03-29T04:31:12;8.30;90.20
31113;DHT22;17763;48.730;9.136;2024-03-29T04:33:38;8.40;90.40
31113;DHT22;17763;48.730;9.136;2024-03-29T04:36:06;8.40;90.50
31113;DHT22;17763;48.730;9.136;2024-03-29T04:38:32;8.30;90.70
31113;DHT22;17763;48.730;9.136;2024-03-29T04:40:58;8.30;90.80
31113;DHT22;17763;48.730;9.136;2024-03-29T04:43:29;8.40;90.60
31113;DHT22;17763;48.730;9.136;2024-03-29T04:46:08;8.40;90.40
31113;DHT22;17763;48.730;9.136;2024-03-29T04:48:42;8.40;90.40
31113;DHT22;17763;48.730;9.136;2024-03-29T04:51:11;8.40;90.90
31113;DHT22;17763;48.730;9.136;2024-03-29T04:53:40;8.40;91.20
31113;DHT22;17763;48.730;9.136;2024-03-29T04:56:06;8.40;90.70
31113;DHT22;17763;48.730;9.136;2024-03-29T04:58:31;8.40;90.50
31113;DHT22;17763;48.730;9.136;2024-03-29T05:01:00;8.50;90.50
31113;DHT22;17763;48.730;9.136;2024-03-29T05:03:25;8.50;90.60
31113;DHT22;17763;48.730;9.136;2024-03-29T05:05:51;8.50;90.80
31113;DHT22;17763;48.730;9.136;2024-03-29T05:08:17;8.50;91.30
31113;DHT22;17763;48.730;9.136;2024-03-29T05:10:45;8.60;91.40
31113;DHT22;17763;48.730;9.136;2024-03-29T05:13:11;8.60;91.00
31113;DHT22;17763;48.730;9.136;2024-03-29T05:15:42;8.60;90.80
31113;DHT22;17763;48.730;9.136;2024-03-29T05:18:07;8.60;90.50
31113;DHT22;17763;48.730;9.136;2024-03-29T05:20:36;8.60;90.50
31113;DHT22;17763;48.730;9.136;2024-03-29T05:23:04;8.60;90.40
31113;DHT22;17763;48.730;9.136;2024-03-29T05:25:32;8.60;90.40
31113;DHT22;17763;48.730;9.136;2024-03-29T05:28:00;8.70;90.40
31113;DHT22;17763;48.730;9.136;2024-03-29T05:30:26;8.70;90.30
31113;DHT22;17763;48.730;9.136;2024-03-29T05:32:53;8.70;90.30
31113;DHT22;17763;48.730;9.136;2024-03-29T05:35:20;8.70;90.20
31113;DHT22;17763;48.730;9.136;2024-03-29T05:37:46;8.70;90.20
31113;DHT22;17763;48.730;9.136;2024-03-29T05:40:15;8.70;90.20
31113;DHT22;17763;48.730;9.136;2024-03-29T05:42:41;8.80;90.30
31113;DHT22;17763;48.730;9.136;2024-03-29T05:45:25;8.70;90.30
31113;DHT22;17763;48.730;9.136;2024-03-29T05:47:55;8.80;89.90
31113;DHT22;17763;48.730;9.136;2024-03-29T05:50:21;8.80;89.20
31113;DHT22;17763;48.730;9.136;2024-03-29T05:52:47;8.80;89.40
31113;DHT22;17763;48.730;9.136;2024-03-29T05:55:15;8.90;89.70
31113;DHT22;17763;48.730;9.136;2024-03-29T05:57:41;8.90;90.10
31113;DHT22;17763;48.730;9.136;2024-03-29T06:00:11;8.90;90.10
31113;DHT22;17763;48.730;9.136;2024-03-29T06:02:40;8.90;89.40
31113;DHT22;17763;48.730;9.136;2024-03-29T06:05:06;8.90;89.40
31113;DHT22;17763;48.730;9.136;2024-03-29T06:07:32;8.90;89.50
31113;DHT22;17763;48.730;9.136;2024-03-29T06:09:59;8.90;89.40
31113;DHT22;17763;48.730;9.136;2024-03-29T06:12:29;9.00;89.40
31113;DHT22;17763;48.730;9.136;2024-03-29T06:14:57;9.00;89.70
31113;DHT22;17763;48.730;9.136;2024-03-29T06:17:40;9.00;89.10
31113;DHT22;17763;48.730;9.136;2024-03-29T06:20:10;9.10;89.00
31113;DHT22;17763;48.730;9.136;2024-03-29T06:22:35;9.10;88.90
31113;DHT22;17763;48.730;9.136;2024-03-29T06:25:04;9.10;89.00
31113;DHT22;17763;48.730;9.136;2024-03-29T06:27:33;9.20;89.20
31113;DHT22;17763;48.730;9.136;2024-03-29T06:30:02;9.30;89.30
31113;DHT22;17763;48.730;9.136;2024-03-29T06:32:29;9.30;89.20
31113;DHT22;17763;48.730;9.136;2024-03-29T06:34:55;9.30;89.20
31113;DHT22;17763;48.730;9.136;2024-03-29T06:37:23;9.40;89.20
31113;DHT22;17763;48.730;9.136;2024-03-29T06:39:52;9.40;89.10
31113;DHT22;17763;48.730;9.136;2024-03-29T06:42:20;9.40;89.10
31113;DHT22;17763;48.730;9.136;2024-03-29T06:44:46;9.50;88.50
31113;DHT22;17763;48.730;9.136;2024-03-29T06:47:11;9.60;88.40
31113;DHT22;17763;48.730;9.136;2024-03-29T06:49:38;9.60;88.60
31113;DHT22;17763;48.730;9.136;2024-03-29T06:52:09;9.70;88.30
31113;DHT22;17763;48.730;9.136;2024-03-29T06:54:34;9.70;87.80
31113;DHT22;17763;48.730;9.136;2024-03-29T06:57:00;9.80;87.90
31113;DHT22;17763;48.730;9.136;2024-03-29T06:59:26;9.90;87.80
31113;DHT22;17763;48.730;9.136;2024-03-29T07:01:52;9.90;87.60
31113;DHT22;17763;48.730;9.136;2024-03-29T07:04:27;10.00;87.70
31113;DHT22;17763;48.730;9.136;2024-03-29T07:06:53;10.00;87.80
31113;DHT22;17763;48.730;9.136;2024-03-29T07:09:21;10.00;86.90
31113;DHT22;17763;48.730;9.136;2024-03-29T07:11:51;10.10;86.80
31113;DHT22;17763;48.730;9.136;2024-03-29T07:14:18;10.10;85.90
31113;DHT22;17763;48.730;9.136;2024-03-29T07:16:44;10.10;85.90
31113;DHT22;17763;48.730;9.136;2024-03-29T07:19:10;10.10;85.60
31113;DHT22;17763;48.730;9.136;2024-03-29T07:21:40;10.10;84.80
31113;DHT22;17763;48.730;9.136;2024-03-29T07:24:06;10.10;84.70
31113;DHT22;17763;48.730;9.136;2024-03-29T07:26:32;10.10;84.10
31113;DHT22;17763;48.730;9.136;2024-03-29T07:28:58;10.10;83.70
31113;DHT22;17763;48.730;9.136;2024-03-29T07:31:23;10.10;84.20
31113;DHT22;17763;48.730;9.136;2024-03-29T07:33:49;10.00;85.70
31113;DHT22;17763;48.730;9.136;2024-03-29T07:36:15;10.00;87.00
31113;DHT22;17763;48.730;9.136;2024-03-29T07:38:42;9.90;90.70
31113;DHT22;17763;48.730;9.136;2024-03-29T07:41:07;9.80;91.80
31113;DHT22;17763;48.730;9.136;2024-03-29T07:46:39;9.70;93.10
31113;DHT22;17763;48.730;9.136;2024-03-29T07:49:07;9.60;93.20
31113;DHT22;17763;48.730;9.136;2024-03-29T07:51:33;9.60;93.30
31113;DHT22;17763;48.730;9.136;2024-03-29T07:53:59;9.60;94.20
31113;DHT22;17763;48.730;9.136;2024-03-29T07:56:25;9.60;95.90
31113;DHT22;17763;48.730;9.136;2024-03-29T07:58:54;9.60;97.10
31113;DHT22;17763;48.730;9.136;2024-03-29T08:01:23;9.50;98.00
31113;DHT22;17763;48.730;9.136;2024-03-29T08:03:52;9.40;99.10
31113;DHT22;17763;48.730;9.136;2024-03-29T08:06:21;9.40;99.80
31113;DHT22;17763;48.730;9.136;2024-03-29T08:08:50;9.40;99.90
31113;DHT22;17763;48.730;9.136;2024-03-29T08:11:16;9.50;99.90
31113;DHT22;17763;48.730;9.136;2024-03-29T08:13:42;9.40;99.90
31113;DHT22;17763;48.730;9.136;2024-03-29T08:16:08;9.40;99.90
31113;DHT22;17763;48.730;9.136;2024-03-29T08:18:34;9.30;99.90
31113;DHT22;17763;48.730;9.136;2024-03-29T08:21:02;9.40;99.90
31113;DHT22;17763;48.730;9.136;2024-03-29T08:23:28;9.40;99.90
31113;DHT22;17763;48.730;9.136;2024-03-29T08:25:53;9.40;99.90
31113;DHT22;17763;48.730;9.136;2024-03-29T08:28:26;9.40;99.90
31113;DHT22;17763;48.730;9.136;2024-03-29T08:30:59;9.40;99.90
31113;DHT22;17763;48.730;9.136;2024-03-29T08:33:25;9.40;99.90
31113;DHT22;17763;48.730;9.136;2024-03-29T08:35:55;9.40;99.90
31113;DHT22;17763;48.730;9.136;2024-03-29T08:38:23;9.40;99.90
31113;DHT22;17763;48.730;9.136;2024-03-29T08:40:52;9.40;99.90
31113;DHT22;17763;48.730;9.136;2024-03-29T08:43:17;9.30;99.90
31113;DHT22;17763;48.730;9.136;2024-03-29T08:45:45;9.30;99.90
31113;DHT22;17763;48.730;9.136;2024-03-29T08:48:11;9.30;99.90
31113;DHT22;17763;48.730;9.136;2024-03-29T08:50:39;9.20;99.90
31113;DHT22;17763;48.730;9.136;2024-03-29T08:53:07;9.30;99.90
31113;DHT22;17763;48.730;9.136;2024-03-29T08:55:34;9.30;99.90
31113;DHT22;17763;48.730;9.136;2024-03-29T08:58:00;9.30;99.90
31113;DHT22;17763;48.730;9.136;2024-03-29T09:00:30;9.40;99.90
31113;DHT22;17763;48.730;9.136;2024-03-29T09:02:56;9.50;99.90
31113;DHT22;17763;48.730;9.136;2024-03-29T09:05:24;9.50;99.90
31113;DHT22;17763;48.730;9.136;2024-03-29T09:07:50;9.60;99.90
31113;DHT22;17763;48.730;9.136;2024-03-29T09:10:17;9.70;99.90
31113;DHT22;17763;48.730;9.136;2024-03-29T09:12:45;9.70;99.90
31113;DHT22;17763;48.730;9.136;2024-03-29T09:15:10;9.80;99.90
31113;DHT22;17763;48.730;9.136;2024-03-29T09:17:50;9.90;99.90
31113;DHT22;17763;48.730;9.136;2024-03-29T09:20:22;9.90;99.90
31113;DHT22;17763;48.730;9.136;2024-03-29T09:22:50;10.00;99.90
31113;DHT22;17763;48.730;9.136;2024-03-29T09:25:16;10.10;99.90
31113;DHT22;17763;48.730;9.136;2024-03-29T09:27:45;10.10;99.90
31113;DHT22;17763;48.730;9.136;2024-03-29T09:30:14;10.10;99.90
31113;DHT22;17763;48.730;9.136;2024-03-29T09:32:41;10.20;99.90
31113;DHT22;17763;48.730;9.136;2024-03-29T09:35:09;10.20;99.90
31113;DHT22;17763;48.730;9.136;2024-03-29T09:37:34;10.20;99.90
31113;DHT22;17763;48.730;9.136;2024-03-29T09:40:04;10.30;99.90
31113;DHT22;17763;48.730;9.136;2024-03-29T09:42:32;10.40;99.90
31113;DHT22;17763;48.730;9.136;2024-03-29T09:45:01;10.50;99.90
31113;DHT22;17763;48.730;9.136;2024-03-29T09:47:31;10.60;99.90
31113;DHT22;17763;48.730;9.136;2024-03-29T09:50:00;10.60;99.90
31113;DHT22;17763;48.730;9.136;2024-03-29T09:52:28;10.80;99.90
31113;DHT22;17763;48.730;9.136;2024-03-29T09:54:55;10.90;99.90
31113;DHT22;17763;48.730;9.136;2024-03-29T09:57:24;11.20;99.90
31113;DHT22;17763;48.730;9.136;2024-03-29T09:59:55;11.20;99.90
31113;DHT22;17763;48.730;9.136;2024-03-29T10:02:27;11.20;99.90
31113;DHT22;17763;48.730;9.136;2024-03-29T10:04:54;11.20;99.90
31113;DHT22;17763;48.730;9.136;2024-03-29T10:07:21;11.40;99.90
31113;DHT22;17763;48.730;9.136;2024-03-29T10:09:48;11.40;99.90
31113;DHT22;17763;48.730;9.136;2024-03-29T10:12:18;11.50;99.90
31113;DHT22;17763;48.730;9.136;2024-03-29T10:14:45;11.60;99.90
31113;DHT22;17763;48.730;9.136;2024-03-29T10:17:16;11.60;99.90
31113;DHT22;17763;48.730;9.136;2024-03-29T10:19:42;11.80;99.90
31113;DHT22;17763;48.730;9.136;2024-03-29T10:22:08;12.00;99.90
31113;DHT22;17763;48.730;9.136;2024-03-29T10:24:33;12.20;99.90
31113;DHT22;17763;48.730;9.136;2024-03-29T10:27:02;12.40;99.90
31113;DHT22;17763;48.730;9.136;2024-03-29T10:29:31;12.60;99.90
31113;DHT22;17763;48.730;9.136;2024-03-29T10:31:56;12.70;99.90
31113;DHT22;17763;48.730;9.136;2024-03-29T10:34:24;12.50;99.90
31113;DHT22;17763;48.730;9.136;2024-03-29T10:36:53;12.60;99.90
31113;DHT22;17763;48.730;9.136;2024-03-29T10:39:18;12.60;99.90
31113;DHT22;17763;48.730;9.136;2024-03-29T10:41:47;12.70;99.90
31113;DHT22;17763;48.730;9.136;2024-03-29T10:44:20;12.90;99.90
31113;DHT22;17763;48.730;9.136;2024-03-29T10:46:46;13.00;99.90
31113;DHT22;17763;48.730;9.136;2024-03-29T10:49:17;13.10;99.90
31113;DHT22;17763;48.730;9.136;2024-03-29T10:51:43;13.20;99.90
31113;DHT22;17763;48.730;9.136;2024-03-29T10:54:10;13.30;99.90
31113;DHT22;17763;48.730;9.136;2024-03-29T10:56:37;13.30;99.90
31113;DHT22;17763;48.730;9.136;2024-03-29T10:59:21;13.40;99.90
31113;DHT22;17763;48.730;9.136;2024-03-29T11:01:55;13.50;99.90
31113;DHT22;17763;48.730;9.136;2024-03-29T11:04:29;13.50;99.90
31113;DHT22;17763;48.730;9.136;2024-03-29T11:06:57;13.60;99.90
31113;DHT22;17763;48.730;9.136;2024-03-29T11:09:30;13.70;99.90
31113;DHT22;17763;48.730;9.136;2024-03-29T11:12:01;13.70;99.90
31113;DHT22;17763;48.730;9.136;2024-03-29T11:14:34;13.70;99.90
31113;DHT22;17763;48.730;9.136;2024-03-29T11:17:03;13.80;99.90
31113;DHT22;17763;48.730;9.136;2024-03-29T11:19:31;13.80;99.90
31113;DHT22;17763;48.730;9.136;2024-03-29T11:21:57;13.90;99.90
31113;DHT22;17763;48.730;9.136;2024-03-29T11:24:23;14.00;99.90
31113;DHT22;17763;48.730;9.136;2024-03-29T11:26:52;14.10;99.90
31113;DHT22;17763;48.730;9.136;2024-03-29T11:29:26;14.20;99.90
31113;DHT22;17763;48.730;9.136;2024-03-29T11:31:59;14.30;99.90
31113;DHT22;17763;48.730;9.136;2024-03-29T11:34:25;14.40;99.90
31113;DHT22;17763;48.730;9.136;2024-03-29T11:36:50;14.60;99.90
31113;DHT22;17763;48.730;9.136;2024-03-29T11:39:26;14.60;99.90
31113;DHT22;17763;48.730;9.136;2024-03-29T11:41:51;14.70;99.90
31113;DHT22;17763;48.730;9.136;2024-03-29T11:44:17;14.70;99.90
31113;DHT22;17763;48.730;9.136;2024-03-29T11:46:43;14.80;99.90
31113;DHT22;17763;48.730;9.136;2024-03-29T11:49:09;14.80;99.70
31113;DHT22;17763;48.730;9.136;2024-03-29T11:51:35;14.80;99.70
31113;DHT22;17763;48.730;9.136;2024-03-29T11:54:02;14.80;99.80
31113;DHT22;17763;48.730;9.136;2024-03-29T11:56:28;14.70;99.30
31113;DHT22;17763;48.730;9.136;2024-03-29T11:58:53;14.60;99.00
31113;DHT22;17763;48.730;9.136;2024-03-29T12:01:25;14.60;99.00
31113;DHT22;17763;48.730;9.136;2024-03-29T12:03:54;14.50;98.90
31113;DHT22;17763;48.730;9.136;2024-03-29T12:06:20;14.50;98.80
31113;DHT22;17763;48.730;9.136;2024-03-29T12:08:46;14.50;99.40
31113;DHT22;17763;48.730;9.136;2024-03-29T12:11:13;14.50;99.90
31113;DHT22;17763;48.730;9.136;2024-03-29T12:13:39;14.60;99.90
31113;DHT22;17763;48.730;9.136;2024-03-29T12:16:08;14.60;99.90
31113;DHT22;17763;48.730;9.136;2024-03-29T12:18:34;14.60;99.90
31113;DHT22;17763;48.730;9.136;2024-03-29T12:21:01;14.70;99.90
31113;DHT22;17763;48.730;9.136;2024-03-29T12:23:28;14.70;99.90
31113;DHT22;17763;48.730;9.136;2024-03-29T12:25:56;14.80;99.90
31113;DHT22;17763;48.730;9.136;2024-03-29T12:28:23;14.90;99.90
31113;DHT22;17763;48.730;9.136;2024-03-29T12:30:49;14.90;99.90
31113;DHT22;17763;48.730;9.136;2024-03-29T12:33:18;15.00;99.60
31113;DHT22;17763;48.730;9.136;2024-03-29T12:35:49;14.80;98.50
31113;DHT22;17763;48.730;9.136;2024-03-29T12:38:16;14.80;98.90
31113;DHT22;17763;48.730;9.136;2024-03-29T12:40:46;14.60;97.80
31113;DHT22;17763;48.730;9.136;2024-03-29T12:43:13;14.70;98.20
31113;DHT22;17763;48.730;9.136;2024-03-29T12:45:40;14.50;97.10
31113;DHT22;17763;48.730;9.136;2024-03-29T12:48:17;14.50;97.50
31113;DHT22;17763;48.730;9.136;2024-03-29T12:50:44;14.80;97.80
31113;DHT22;17763;48.730;9.136;2024-03-29T12:53:12;14.90;98.30
31113;DHT22;17763;48.730;9.136;2024-03-29T12:55:40;15.00;98.30
31113;DHT22;17763;48.730;9.136;2024-03-29T12:58:07;14.90;99.50
31113;DHT22;17763;48.730;9.136;2024-03-29T13:00:36;14.70;99.90
31113;DHT22;17763;48.730;9.136;2024-03-29T13:03:02;14.80;99.90
31113;DHT22;17763;48.730;9.136;2024-03-29T13:05:28;14.60;99.90
31113;DHT22;17763;48.730;9.136;2024-03-29T13:08:01;14.40;99.90
31113;DHT22;17763;48.730;9.136;2024-03-29T13:10:30;14.30;99.90
31113;DHT22;17763;48.730;9.136;2024-03-29T13:12:55;14.30;99.90
31113;DHT22;17763;48.730;9.136;2024-03-29T13:15:27;14.30;99.90
31113;DHT22;17763;48.730;9.136;2024-03-29T13:17:54;14.40;99.90
31113;DHT22;17763;48.730;9.136;2024-03-29T13:20:23;14.40;99.90
31113;DHT22;17763;48.730;9.136;2024-03-29T13:22:50;14.50;99.90
31113;DHT22;17763;48.730;9.136;2024-03-29T13:25:17;14.50;99.90
31113;DHT22;17763;48.730;9.136;2024-03-29T13:27:44;14.60;99.90
31113;DHT22;17763;48.730;9.136;2024-03-29T13:30:11;14.60;99.90
31113;DHT22;17763;48.730;9.136;2024-03-29T13:32:43;14.60;99.90
31113;DHT22;17763;48.730;9.136;2024-03-29T13:35:12;14.70;99.90
31113;DHT22;17763;48.730;9.136;2024-03-29T13:37:41;14.80;99.80
31113;DHT22;17763;48.730;9.136;2024-03-29T13:40:12;14.80;98.90
31113;DHT22;17763;48.730;9.136;2024-03-29T13:42:38;14.70;98.80
31113;DHT22;17763;48.730;9.136;2024-03-29T13:45:04;14.70;99.20
31113;DHT22;17763;48.730;9.136;2024-03-29T13:47:39;14.80;99.60
31113;DHT22;17763;48.730;9.136;2024-03-29T13:50:09;14.80;99.80
31113;DHT22;17763;48.730;9.136;2024-03-29T13:52:37;15.00;99.90
31113;DHT22;17763;48.730;9.136;2024-03-29T13:55:04;15.10;99.90
31113;DHT22;17763;48.730;9.136;2024-03-29T13:57:33;15.40;99.70
31113;DHT22;17763;48.730;9.136;2024-03-29T13:59:59;15.40;98.80
31113;DHT22;17763;48.730;9.136;2024-03-29T14:02:25;15.30;98.10
31113;DHT22;17763;48.730;9.136;2024-03-29T14:04:54;15.30;97.90
31113;DHT22;17763;48.730;9.136;2024-03-29T14:07:20;15.40;98.30
31113;DHT22;17763;48.730;9.136;2024-03-29T14:09:46;15.40;97.70
31113;DHT22;17763;48.730;9.136;2024-03-29T14:12:13;15.60;97.70
31113;DHT22;17763;48.730;9.136;2024-03-29T14:14:39;15.80;97.60
31113;DHT22;17763;48.730;9.136;2024-03-29T14:17:09;15.90;97.20
31113;DHT22;17763;48.730;9.136;2024-03-29T14:19:41;15.80;97.10
31113;DHT22;17763;48.730;9.136;2024-03-29T14:22:07;15.80;97.30
31113;DHT22;17763;48.730;9.136;2024-03-29T14:24:34;15.90;97.40
31113;DHT22;17763;48.730;9.136;2024-03-29T14:27:03;15.90;97.60
31113;DHT22;17763;48.730;9.136;2024-03-29T14:29:29;16.00;98.00
31113;DHT22;17763;48.730;9.136;2024-03-29T14:31:55;16.10;97.90
31113;DHT22;17763;48.730;9.136;2024-03-29T14:34:21;16.20;97.90
31113;DHT22;17763;48.730;9.136;2024-03-29T14:36:50;16.20;97.20
31113;DHT22;17763;48.730;9.136;2024-03-29T14:39:18;16.10;98.40
31113;DHT22;17763;48.730;9.136;2024-03-29T14:41:47;16.10;98.20
31113;DHT22;17763;48.730;9.136;2024-03-29T14:44:17;16.20;98.00
31113;DHT22;17763;48.730;9.136;2024-03-29T14:46:43;16.20;97.50
31113;DHT22;17763;48.730;9.136;2024-03-29T14:49:09;16.40;97.20
31113;DHT22;17763;48.730;9.136;2024-03-29T14:51:37;16.60;96.00
31113;DHT22;17763;48.730;9.136;2024-03-29T14:54:03;16.50;95.90
31113;DHT22;17763;48.730;9.136;2024-03-29T14:56:30;16.80;96.10
31113;DHT22;17763;48.730;9.136;2024-03-29T14:59:03;17.00;95.50
31113;DHT22;17763;48.730;9.136;2024-03-29T15:01:37;17.10;94.90
31113;DHT22;17763;48.730;9.136;2024-03-29T15:04:05;17.20;94.50
31113;DHT22;17763;48.730;9.136;2024-03-29T15:06:31;17.00;93.20
31113;DHT22;17763;48.730;9.136;2024-03-29T15:08:56;16.80;93.40
31113;DHT22;17763;48.730;9.136;2024-03-29T15:11:23;16.80;93.50
31113;DHT22;17763;48.730;9.136;2024-03-29T15:13:51;16.50;93.00
31113;DHT22;17763;48.730;9.136;2024-03-29T15:16:17;16.50;92.70
31113;DHT22;17763;48.730;9.136;2024-03-29T15:18:48;16.40;93.70
31113;DHT22;17763;48.730;9.136;2024-03-29T15:21:14;16.60;94.10
31113;DHT22;17763;48.730;9.136;2024-03-29T15:23:39;16.70;94.40
31113;DHT22;17763;48.730;9.136;2024-03-29T15:26:05;16.70;94.40
31113;DHT22;17763;48.730;9.136;2024-03-29T15:28:30;16.80;94.70
31113;DHT22;17763;48.730;9.136;2024-03-29T15:31:16;16.80;94.10
31113;DHT22;17763;48.730;9.136;2024-03-29T15:33:46;16.70;93.40
31113;DHT22;17763;48.730;9.136;2024-03-29T15:36:16;16.60;92.70
31113;DHT22;17763;48.730;9.136;2024-03-29T15:38:42;16.50;93.00
31113;DHT22;17763;48.730;9.136;2024-03-29T15:41:08;16.50;93.10
31113;DHT22;17763;48.730;9.136;2024-03-29T15:43:36;16.40;93.30
31113;DHT22;17763;48.730;9.136;2024-03-29T15:46:06;16.40;94.10